sensor_id;sensor_type;location;lat;lon;timestamp;pressure;altitude;pressure_sealevel;temperature;humidity
9110;BME280;4590;51.462;6.692;2023-06-04T00:01:30;101864.75;;;16.79;33.00
9110;BME280;4590;51.462;6.692;2023-06-04T00:03:55;101864.88;;;16.74;34.36
9110;BME280;4590;51.462;6.692;2023-06-04T00:06:21;101864.88;;;16.74;33.95
9110;BME280;4590;51.462;6.692;2023-06-04T00:08:46;101861.28;;;16.73;32.68
9110;BME280;4590;51.462;6.692;2023-06-04T00:11:11;101862.94;;;16.74;33.49
9110;BME280;4590;51.462;6.692;2023-06-04T00:13:36;101862.94;;;16.74;33.06
9110;BME280;4590;51.462;6.692;2023-06-04T00:16:01;101862.41;;;16.72;33.11
9110;BME280;4590;51.462;6.692;2023-06-04T00:18:26;101850.34;;;16.68;33.04
9110;BME280;4590;51.462;6.692;2023-06-04T00:20:52;101858.59;;;16.60;34.98
9110;BME280;4590;51.462;6.692;2023-06-04T00:23:17;101851.19;;;16.55;34.65
9110;BME280;4590;51.462;6.692;2023-06-04T00:25:42;101850.53;;;16.49;34.31
9110;BME280;4590;51.462;6.692;2023-06-04T00:28:07;101855.53;;;16.39;36.43
9110;BME280;4590;51.462;6.692;2023-06-04T00:30:32;101851.44;;;16.36;36.19
9110;BME280;4590;51.462;6.692;2023-06-04T00:32:58;101862.22;;;16.38;35.57
9110;BME280;4590;51.462;6.692;2023-06-04T00:35:23;101859.78;;;16.36;36.40
9110;BME280;4590;51.462;6.692;2023-06-04T00:37:49;101857.63;;;16.33;37.92
9110;BME280;4590;51.462;6.692;2023-06-04T00:40:15;101866.28;;;16.32;36.61
9110;BME280;4590;51.462;6.692;2023-06-04T00:42:40;101862.19;;;16.29;35.74
9110;BME280;4590;51.462;6.692;2023-06-04T00:45:05;101864.44;;;16.27;35.82
9110;BME280;4590;51.462;6.692;2023-06-04T00:47:34;101861.16;;;16.25;36.61
9110;BME280;4590;51.462;6.692;2023-06-04T00:49:59;101867.34;;;16.22;37.15
9110;BME280;4590;51.462;6.692;2023-06-04T00:52:25;101857.22;;;16.18;37.81
9110;BME280;4590;51.462;6.692;2023-06-04T00:54:51;101856.72;;;16.16;37.02
9110;BME280;4590;51.462;6.692;2023-06-04T00:57:16;101855.69;;;16.11;37.05
9110;BME280;4590;51.462;6.692;2023-06-04T00:59:41;101855.50;;;16.08;37.75
9110;BME280;4590;51.462;6.692;2023-06-04T01:02:17;101856.41;;;15.95;39.62
9110;BME280;4590;51.462;6.692;2023-06-04T01:07:20;101857.38;;;15.76;40.32
9110;BME280;4590;51.462;6.692;2023-06-04T01:09:46;101854.09;;;15.74;38.50
9110;BME280;4590;51.462;6.692;2023-06-04T01:12:12;101861.75;;;15.69;39.00
9110;BME280;4590;51.462;6.692;2023-06-04T01:14:37;101855.94;;;15.57;40.07
9110;BME280;4590;51.462;6.692;2023-06-04T01:22:17;101859.72;;;15.47;40.47
9110;BME280;4590;51.462;6.692;2023-06-04T01:24:46;101861.28;;;15.39;41.62
9110;BME280;4590;51.462;6.692;2023-06-04T01:27:13;101868.91;;;15.34;41.37
9110;BME280;4590;51.462;6.692;2023-06-04T01:29:41;101866.13;;;15.34;40.89
9110;BME280;4590;51.462;6.692;2023-06-04T01:32:06;101861.81;;;15.28;42.71
9110;BME280;4590;51.462;6.692;2023-06-04T01:34:31;101861.19;;;15.31;41.14
9110;BME280;4590;51.462;6.692;2023-06-04T01:37:08;101867.19;;;15.24;42.47
9110;BME280;4590;51.462;6.692;2023-06-04T01:39:36;101866.88;;;15.26;41.60
9110;BME280;4590;51.462;6.692;2023-06-04T01:42:01;101865.22;;;15.25;39.82
9110;BME280;4590;51.462;6.692;2023-06-04T01:44:26;101859.47;;;15.21;40.82
9110;BME280;4590;51.462;6.692;2023-06-04T01:46:51;101860.09;;;15.18;41.71
9110;BME280;4590;51.462;6.692;2023-06-04T01:49:17;101863.69;;;15.19;40.37
9110;BME280;4590;51.462;6.692;2023-06-04T01:51:42;101855.97;;;15.16;41.06
9110;BME280;4590;51.462;6.692;2023-06-04T01:54:07;101846.03;;;15.15;41.17
9110;BME280;4590;51.462;6.692;2023-06-04T01:56:32;101854.13;;;15.11;40.63
9110;BME280;4590;51.462;6.692;2023-06-04T01:58:57;101854.78;;;15.08;41.61
9110;BME280;4590;51.462;6.692;2023-06-04T02:01:22;101860.13;;;15.04;42.11
9110;BME280;4590;51.462;6.692;2023-06-04T02:03:48;101856.91;;;14.97;42.85
9110;BME280;4590;51.462;6.692;2023-06-04T02:06:13;101855.78;;;14.98;41.89
9110;BME280;4590;51.462;6.692;2023-06-04T02:08:38;101863.94;;;14.95;44.16
9110;BME280;4590;51.462;6.692;2023-06-04T02:11:05;101864.84;;;14.90;44.22
9110;BME280;4590;51.462;6.692;2023-06-04T02:13:30;101859.00;;;14.92;43.44
9110;BME280;4590;51.462;6.692;2023-06-04T02:15:55;101864.84;;;14.90;43.65
9110;BME280;4590;51.462;6.692;2023-06-04T02:18:20;101862.06;;;14.90;42.92
9110;BME280;4590;51.462;6.692;2023-06-04T02:20:47;101864.84;;;14.90;41.35
9110;BME280;4590;51.462;6.692;2023-06-04T02:23:13;101868.75;;;14.89;41.91
9110;BME280;4590;51.462;6.692;2023-06-04T02:25:38;101869.88;;;14.88;43.58
9110;BME280;4590;51.462;6.692;2023-06-04T02:28:04;101869.03;;;14.88;42.39
9110;BME280;4590;51.462;6.692;2023-06-04T02:30:29;101870.16;;;14.87;43.55
9110;BME280;4590;51.462;6.692;2023-06-04T02:32:54;101870.69;;;14.89;43.73
9110;BME280;4590;51.462;6.692;2023-06-04T02:35:20;101868.22;;;14.87;44.00
9110;BME280;4590;51.462;6.692;2023-06-04T02:37:47;101871.31;;;14.86;43.59
9110;BME280;4590;51.462;6.692;2023-06-04T02:40:12;101882.47;;;14.81;43.52
9110;BME280;4590;51.462;6.692;2023-06-04T02:42:38;101873.34;;;14.80;42.34
9110;BME280;4590;51.462;6.692;2023-06-04T02:45:03;101875.09;;;14.76;44.41
9110;BME280;4590;51.462;6.692;2023-06-04T02:47:28;101874.28;;;14.76;43.55
9110;BME280;4590;51.462;6.692;2023-06-04T02:49:53;101885.66;;;14.74;42.50
9110;BME280;4590;51.462;6.692;2023-06-04T02:52:19;101879.59;;;14.72;43.87
9110;BME280;4590;51.462;6.692;2023-06-04T02:54:46;101874.38;;;14.70;44.69
9110;BME280;4590;51.462;6.692;2023-06-04T02:57:11;101875.19;;;14.71;45.49
9110;BME280;4590;51.462;6.692;2023-06-04T02:59:36;101874.88;;;14.72;45.60
9110;BME280;4590;51.462;6.692;2023-06-04T03:02:01;101877.34;;;14.74;45.14
9110;BME280;4590;51.462;6.692;2023-06-04T03:04:27;101879.00;;;14.75;44.15
9110;BME280;4590;51.462;6.692;2023-06-04T03:07:02;101874.28;;;14.76;45.29
9110;BME280;4590;51.462;6.692;2023-06-04T03:09:28;101876.75;;;14.77;44.81
9110;BME280;4590;51.462;6.692;2023-06-04T03:11:53;101876.75;;;14.77;44.36
9110;BME280;4590;51.462;6.692;2023-06-04T03:14:18;101875.09;;;14.76;43.79
9110;BME280;4590;51.462;6.692;2023-06-04T03:16:43;101879.31;;;14.73;45.42
9110;BME280;4590;51.462;6.692;2023-06-04T03:19:10;101874.59;;;14.74;44.80
9110;BME280;4590;51.462;6.692;2023-06-04T03:21:36;101883.13;;;14.78;43.33
9110;BME280;4590;51.462;6.692;2023-06-04T03:24:04;101864.63;;;14.73;44.58
9110;BME280;4590;51.462;6.692;2023-06-04T03:26:29;101870.47;;;14.71;45.71
9110;BME280;4590;51.462;6.692;2023-06-04T03:28:55;101864.41;;;14.69;44.55
9110;BME280;4590;51.462;6.692;2023-06-04T03:31:20;101866.66;;;14.67;44.07
9110;BME280;4590;51.462;6.692;2023-06-04T03:33:45;101878.06;;;14.66;44.36
9110;BME280;4590;51.462;6.692;2023-06-04T03:36:10;101871.19;;;14.63;45.36
9110;BME280;4590;51.462;6.692;2023-06-04T03:38:35;101869.84;;;14.61;45.47
9110;BME280;4590;51.462;6.692;2023-06-04T03:41:01;101867.09;;;14.61;44.51
9110;BME280;4590;51.462;6.692;2023-06-04T03:43:26;101871.88;;;14.55;44.76
9110;BME280;4590;51.462;6.692;2023-06-04T03:45:51;101873.63;;;14.51;45.91
9110;BME280;4590;51.462;6.692;2023-06-04T03:48:16;101874.75;;;14.50;45.68
9110;BME280;4590;51.462;6.692;2023-06-04T03:50:41;101885.13;;;14.45;45.81
9110;BME280;4590;51.462;6.692;2023-06-04T03:53:07;101880.19;;;14.42;44.17
9110;BME280;4590;51.462;6.692;2023-06-04T03:55:33;101881.97;;;14.32;45.02
9110;BME280;4590;51.462;6.692;2023-06-04T03:57:58;101879.00;;;14.29;45.74
9110;BME280;4590;51.462;6.692;2023-06-04T04:00:23;101879.38;;;14.22;44.93
9110;BME280;4590;51.462;6.692;2023-06-04T04:02:49;101883.38;;;14.16;46.42
9110;BME280;4590;51.462;6.692;2023-06-04T04:05:15;101876.50;;;14.14;47.33
9110;BME280;4590;51.462;6.692;2023-06-04T04:07:40;101873.19;;;14.12;47.02
9110;BME280;4590;51.462;6.692;2023-06-04T04:10:06;101874.63;;;14.09;47.58
9110;BME280;4590;51.462;6.692;2023-06-04T04:12:31;101874.94;;;14.08;47.23
9110;BME280;4590;51.462;6.692;2023-06-04T04:14:56;101871.84;;;14.09;46.33
9110;BME280;4590;51.462;6.692;2023-06-04T04:17:22;101874.09;;;14.07;46.14
9110;BME280;4590;51.462;6.692;2023-06-04T04:19:47;101871.63;;;14.05;46.33
9110;BME280;4590;51.462;6.692;2023-06-04T04:22:12;101868.03;;;14.05;47.20
9110;BME280;4590;51.462;6.692;2023-06-04T04:24:38;101871.34;;;14.07;46.68
9110;BME280;4590;51.462;6.692;2023-06-04T04:27:04;101879.03;;;14.10;46.19
9110;BME280;4590;51.462;6.692;2023-06-04T04:29:30;101872.91;;;14.13;47.03
9110;BME280;4590;51.462;6.692;2023-06-04T04:31:57;101873.72;;;14.14;46.67
9110;BME280;4590;51.462;6.692;2023-06-04T04:34:25;101871.16;;;14.17;47.66
9110;BME280;4590;51.462;6.692;2023-06-04T04:36:50;101870.84;;;14.19;47.23
9110;BME280;4590;51.462;6.692;2023-06-04T04:39:18;101878.56;;;14.22;47.50
9110;BME280;4590;51.462;6.692;2023-06-04T04:41:43;101874.66;;;14.23;46.02
9110;BME280;4590;51.462;6.692;2023-06-04T04:44:08;101882.38;;;14.26;47.26
9110;BME280;4590;51.462;6.692;2023-06-04T04:46:33;101889.56;;;14.27;48.28
9110;BME280;4590;51.462;6.692;2023-06-04T04:48:58;101881.75;;;14.29;47.01
9110;BME280;4590;51.462;6.692;2023-06-04T04:51:24;101877.25;;;14.33;46.08
9110;BME280;4590;51.462;6.692;2023-06-04T04:53:49;101884.13;;;14.35;46.93
9110;BME280;4590;51.462;6.692;2023-06-04T04:56:14;101893.47;;;14.39;46.24
9110;BME280;4590;51.462;6.692;2023-06-04T04:58:39;101891.25;;;14.42;47.29
9110;BME280;4590;51.462;6.692;2023-06-04T05:01:04;101885.72;;;14.42;47.71
9110;BME280;4590;51.462;6.692;2023-06-04T05:03:30;101877.34;;;14.47;45.80
9110;BME280;4590;51.462;6.692;2023-06-04T05:05:55;101880.59;;;14.49;46.57
9110;BME280;4590;51.462;6.692;2023-06-04T05:08:20;101886.03;;;14.54;46.70
9110;BME280;4590;51.462;6.692;2023-06-04T05:10:45;101882.66;;;14.57;46.10
9110;BME280;4590;51.462;6.692;2023-06-04T05:13:11;101884.84;;;14.60;47.51
9110;BME280;4590;51.462;6.692;2023-06-04T05:15:36;101897.75;;;14.64;48.43
9110;BME280;4590;51.462;6.692;2023-06-04T05:18:02;101899.81;;;14.72;46.02
9110;BME280;4590;51.462;6.692;2023-06-04T05:20:28;101888.84;;;14.81;47.31
9110;BME280;4590;51.462;6.692;2023-06-04T05:22:53;101892.56;;;14.90;46.63
9110;BME280;4590;51.462;6.692;2023-06-04T05:25:20;101885.38;;;15.03;46.11
9110;BME280;4590;51.462;6.692;2023-06-04T05:27:45;101897.25;;;15.17;45.62
9110;BME280;4590;51.462;6.692;2023-06-04T05:30:14;101891.59;;;15.36;45.34
9110;BME280;4590;51.462;6.692;2023-06-04T05:32:39;101892.00;;;15.57;45.55
9110;BME280;4590;51.462;6.692;2023-06-04T05:35:05;101884.00;;;15.77;45.53
9110;BME280;4590;51.462;6.692;2023-06-04T05:37:32;101886.81;;;16.00;44.64
9110;BME280;4590;51.462;6.692;2023-06-04T05:39:59;101887.75;;;16.18;44.20
9110;BME280;4590;51.462;6.692;2023-06-04T05:42:24;101884.13;;;16.39;44.16
9110;BME280;4590;51.462;6.692;2023-06-04T05:44:49;101883.28;;;16.61;44.07
9110;BME280;4590;51.462;6.692;2023-06-04T05:47:15;101882.44;;;16.83;43.49
9110;BME280;4590;51.462;6.692;2023-06-04T05:49:41;101901.28;;;17.03;43.18
9110;BME280;4590;51.462;6.692;2023-06-04T05:52:06;101889.59;;;17.24;42.63
9110;BME280;4590;51.462;6.692;2023-06-04T05:54:32;101887.81;;;17.36;42.08
9110;BME280;4590;51.462;6.692;2023-06-04T05:56:57;101888.00;;;17.57;41.61
9110;BME280;4590;51.462;6.692;2023-06-04T05:59:28;101887.72;;;17.67;41.59
9110;BME280;4590;51.462;6.692;2023-06-04T06:01:53;101888.56;;;17.76;40.66
9110;BME280;4590;51.462;6.692;2023-06-04T06:04:19;101887.88;;;17.79;40.44
9110;BME280;4590;51.462;6.692;2023-06-04T06:06:45;101901.47;;;17.81;39.82
9110;BME280;4590;51.462;6.692;2023-06-04T06:09:13;101895.28;;;17.93;40.17
9110;BME280;4590;51.462;6.692;2023-06-04T06:11:38;101898.50;;;18.12;40.68
9110;BME280;4590;51.462;6.692;2023-06-04T06:14:05;101897.03;;;18.23;39.57
9110;BME280;4590;51.462;6.692;2023-06-04T06:16:31;101891.44;;;18.32;38.29
9110;BME280;4590;51.462;6.692;2023-06-04T06:18:57;101897.28;;;18.65;39.20
9110;BME280;4590;51.462;6.692;2023-06-04T06:21:22;101894.09;;;18.83;38.77
9110;BME280;4590;51.462;6.692;2023-06-04T06:23:47;101905.88;;;18.89;38.04
9110;BME280;4590;51.462;6.692;2023-06-04T06:28:48;101910.53;;;19.14;37.51
9110;BME280;4590;51.462;6.692;2023-06-04T06:33:43;101907.91;;;19.39;38.33
9110;BME280;4590;51.462;6.692;2023-06-04T06:36:12;101910.34;;;19.49;37.06
9110;BME280;4590;51.462;6.692;2023-06-04T06:38:37;101908.28;;;19.67;37.19
9110;BME280;4590;51.462;6.692;2023-06-04T06:41:02;101910.81;;;19.80;35.50
9110;BME280;4590;51.462;6.692;2023-06-04T06:43:28;101908.31;;;20.00;36.49
9110;BME280;4590;51.462;6.692;2023-06-04T06:45:53;101914.31;;;20.10;37.00
9110;BME280;4590;51.462;6.692;2023-06-04T06:48:18;101908.91;;;20.26;36.66
9110;BME280;4590;51.462;6.692;2023-06-04T06:50:43;101902.69;;;20.41;36.30
9110;BME280;4590;51.462;6.692;2023-06-04T06:53:08;101914.53;;;20.59;36.13
9110;BME280;4590;51.462;6.692;2023-06-04T06:55:33;101917.47;;;20.75;36.49
9110;BME280;4590;51.462;6.692;2023-06-04T06:58:00;101921.78;;;20.84;36.51
9110;BME280;4590;51.462;6.692;2023-06-04T07:00:26;101918.75;;;20.89;34.26
9110;BME280;4590;51.462;6.692;2023-06-04T07:02:52;101920.06;;;21.04;35.33
9110;BME280;4590;51.462;6.692;2023-06-04T07:05:17;101917.13;;;21.13;34.35
9110;BME280;4590;51.462;6.692;2023-06-04T07:07:44;101919.88;;;21.21;35.13
9110;BME280;4590;51.462;6.692;2023-06-04T07:10:09;101917.06;;;21.33;33.87
9110;BME280;4590;51.462;6.692;2023-06-04T07:12:34;101924.03;;;21.52;32.88
9110;BME280;4590;51.462;6.692;2023-06-04T07:14:59;101929.47;;;21.73;33.59
9110;BME280;4590;51.462;6.692;2023-06-04T07:17:25;101927.78;;;21.96;33.22
9110;BME280;4590;51.462;6.692;2023-06-04T07:19:50;101923.09;;;22.12;32.86
9110;BME280;4590;51.462;6.692;2023-06-04T07:22:15;101926.25;;;21.98;31.57
9110;BME280;4590;51.462;6.692;2023-06-04T07:24:41;101927.94;;;22.27;32.86
9110;BME280;4590;51.462;6.692;2023-06-04T07:27:12;101929.88;;;22.55;33.05
9110;BME280;4590;51.462;6.692;2023-06-04T07:29:37;101937.69;;;22.61;32.21
9110;BME280;4590;51.462;6.692;2023-06-04T07:32:02;101932.22;;;22.81;31.05
9110;BME280;4590;51.462;6.692;2023-06-04T07:34:28;101931.41;;;23.12;33.37
9110;BME280;4590;51.462;6.692;2023-06-04T07:36:53;101924.97;;;23.27;32.09
9110;BME280;4590;51.462;6.692;2023-06-04T07:39:18;101927.91;;;23.50;32.97
9110;BME280;4590;51.462;6.692;2023-06-04T07:41:43;101930.34;;;23.67;31.34
9110;BME280;4590;51.462;6.692;2023-06-04T07:44:08;101927.19;;;23.88;29.03
9110;BME280;4590;51.462;6.692;2023-06-04T07:46:33;101928.97;;;24.15;29.28
9110;BME280;4590;51.462;6.692;2023-06-04T07:48:59;101927.31;;;24.30;27.40
9110;BME280;4590;51.462;6.692;2023-06-04T07:51:24;101926.91;;;24.51;30.33
9110;BME280;4590;51.462;6.692;2023-06-04T07:53:50;101924.88;;;24.70;31.26
9110;BME280;4590;51.462;6.692;2023-06-04T07:56:15;101918.91;;;24.75;30.57
9110;BME280;4590;51.462;6.692;2023-06-04T07:58:40;101923.53;;;24.87;31.60
9110;BME280;4590;51.462;6.692;2023-06-04T08:01:06;101912.50;;;24.98;30.04
9110;BME280;4590;51.462;6.692;2023-06-04T08:03:31;101914.38;;;25.13;29.49
9110;BME280;4590;51.462;6.692;2023-06-04T08:05:56;101918.16;;;25.24;27.92
9110;BME280;4590;51.462;6.692;2023-06-04T08:08:21;101925.13;;;25.30;29.56
9110;BME280;4590;51.462;6.692;2023-06-04T08:10:47;101932.25;;;25.24;27.77
9110;BME280;4590;51.462;6.692;2023-06-04T08:13:12;101928.38;;;25.32;27.10
9110;BME280;4590;51.462;6.692;2023-06-04T08:15:37;101922.34;;;25.34;26.80
9110;BME280;4590;51.462;6.692;2023-06-04T08:18:02;101920.38;;;25.38;27.86
9110;BME280;4590;51.462;6.692;2023-06-04T08:20:28;101921.41;;;25.52;27.47
9110;BME280;4590;51.462;6.692;2023-06-04T08:22:53;101922.44;;;25.64;26.85
9110;BME280;4590;51.462;6.692;2023-06-04T08:25:18;101921.25;;;25.65;25.33
9110;BME280;4590;51.462;6.692;2023-06-04T08:27:43;101927.69;;;25.95;28.03
9110;BME280;4590;51.462;6.692;2023-06-04T08:30:08;101930.38;;;26.18;28.62
9110;BME280;4590;51.462;6.692;2023-06-04T08:32:34;101939.72;;;26.22;25.54
9110;BME280;4590;51.462;6.692;2023-06-04T08:34:59;101938.00;;;26.47;28.05
9110;BME280;4590;51.462;6.692;2023-06-04T08:37:24;101936.06;;;26.21;23.54
9110;BME280;4590;51.462;6.692;2023-06-04T08:39:51;101927.53;;;26.48;25.98
9110;BME280;4590;51.462;6.692;2023-06-04T08:42:40;101933.25;;;26.55;26.60
9110;BME280;4590;51.462;6.692;2023-06-04T08:45:02;101921.31;;;26.69;26.07
9110;BME280;4590;51.462;6.692;2023-06-04T08:47:28;101927.00;;;26.72;23.63
9110;BME280;4590;51.462;6.692;2023-06-04T08:49:55;101928.66;;;26.80;24.61
9110;BME280;4590;51.462;6.692;2023-06-04T08:52:23;101925.28;;;26.64;23.96
9110;BME280;4590;51.462;6.692;2023-06-04T08:54:49;101926.88;;;26.62;23.03
9110;BME280;4590;51.462;6.692;2023-06-04T08:57:16;101931.63;;;26.54;21.87
9110;BME280;4590;51.462;6.692;2023-06-04T08:59:41;101924.84;;;26.59;22.66
9110;BME280;4590;51.462;6.692;2023-06-04T09:02:07;101926.91;;;26.65;24.78
9110;BME280;4590;51.462;6.692;2023-06-04T09:04:33;101932.56;;;26.65;23.82
9110;BME280;4590;51.462;6.692;2023-06-04T09:07:00;101937.28;;;26.54;23.14
9110;BME280;4590;51.462;6.692;2023-06-04T09:09:26;101941.25;;;26.49;23.07
9110;BME280;4590;51.462;6.692;2023-06-04T09:11:55;101936.47;;;26.53;22.82
9110;BME280;4590;51.462;6.692;2023-06-04T09:14:20;101938.91;;;26.55;23.39
9110;BME280;4590;51.462;6.692;2023-06-04T09:16:49;101940.97;;;26.58;22.25
9110;BME280;4590;51.462;6.692;2023-06-04T09:19:15;101932.41;;;26.51;22.15
9110;BME280;4590;51.462;6.692;2023-06-04T09:24:18;101939.59;;;26.15;22.23
9110;BME280;4590;51.462;6.692;2023-06-04T09:26:44;101949.03;;;26.26;21.40
9110;BME280;4590;51.462;6.692;2023-06-04T09:29:09;101939.91;;;26.06;21.53
9110;BME280;4590;51.462;6.692;2023-06-04T09:31:35;101943.06;;;26.01;21.89
9110;BME280;4590;51.462;6.692;2023-06-04T09:34:03;101931.28;;;25.92;20.01
9110;BME280;4590;51.462;6.692;2023-06-04T09:36:35;101941.16;;;26.09;20.94
9110;BME280;4590;51.462;6.692;2023-06-04T09:39:01;101946.44;;;26.14;20.99
9110;BME280;4590;51.462;6.692;2023-06-04T09:41:27;101937.97;;;26.10;21.43
9110;BME280;4590;51.462;6.692;2023-06-04T09:43:59;101937.78;;;25.96;20.50
9110;BME280;4590;51.462;6.692;2023-06-04T09:46:27;101943.81;;;25.95;20.87
9110;BME280;4590;51.462;6.692;2023-06-04T09:48:58;101935.38;;;25.98;21.34
9110;BME280;4590;51.462;6.692;2023-06-04T09:51:24;101931.03;;;26.04;21.54
9110;BME280;4590;51.462;6.692;2023-06-04T09:53:56;101925.44;;;26.08;21.60
9110;BME280;4590;51.462;6.692;2023-06-04T09:56:21;101931.53;;;26.13;21.36
9110;BME280;4590;51.462;6.692;2023-06-04T09:58:50;101934.75;;;26.12;21.53
9110;BME280;4590;51.462;6.692;2023-06-04T10:01:18;101930.66;;;26.06;21.13
9110;BME280;4590;51.462;6.692;2023-06-04T10:03:45;101951.63;;;26.08;21.51
9110;BME280;4590;51.462;6.692;2023-06-04T10:06:11;101933.47;;;26.06;21.01
9110;BME280;4590;51.462;6.692;2023-06-04T10:08:39;101923.81;;;26.07;21.55
9110;BME280;4590;51.462;6.692;2023-06-04T10:11:06;101928.16;;;26.01;21.43
9110;BME280;4590;51.462;6.692;2023-06-04T10:13:38;101928.78;;;25.87;20.00
9110;BME280;4590;51.462;6.692;2023-06-04T10:16:06;101935.41;;;26.02;21.50
9110;BME280;4590;51.462;6.692;2023-06-04T10:18:32;101935.19;;;25.84;21.24
9110;BME280;4590;51.462;6.692;2023-06-04T10:20:58;101931.50;;;26.10;20.59
9110;BME280;4590;51.462;6.692;2023-06-04T10:23:24;101925.31;;;26.31;21.22
9110;BME280;4590;51.462;6.692;2023-06-04T10:25:50;101920.97;;;26.37;21.44
9110;BME280;4590;51.462;6.692;2023-06-04T10:28:18;101925.22;;;26.57;21.30
9110;BME280;4590;51.462;6.692;2023-06-04T10:30:44;101927.63;;;26.55;19.27
9110;BME280;4590;51.462;6.692;2023-06-04T10:33:09;101917.63;;;26.65;19.91
9110;BME280;4590;51.462;6.692;2023-06-04T10:35:35;101904.53;;;26.86;20.65
9110;BME280;4590;51.462;6.692;2023-06-04T10:38:10;101910.72;;;26.99;20.77
9110;BME280;4590;51.462;6.692;2023-06-04T10:40:35;101906.34;;;27.05;20.01
9110;BME280;4590;51.462;6.692;2023-06-04T10:43:05;101918.06;;;27.11;19.84
9110;BME280;4590;51.462;6.692;2023-06-04T10:45:30;101918.88;;;27.11;19.98
9110;BME280;4590;51.462;6.692;2023-06-04T10:48:05;101916.44;;;27.10;20.71
9110;BME280;4590;51.462;6.692;2023-06-04T10:50:35;101905.09;;;27.03;20.04
9110;BME280;4590;51.462;6.692;2023-06-04T10:53:00;101916.03;;;27.08;20.46
9110;BME280;4590;51.462;6.692;2023-06-04T10:55:28;101908.34;;;27.05;18.93
9110;BME280;4590;51.462;6.692;2023-06-04T10:57:54;101898.28;;;27.11;20.58
9110;BME280;4590;51.462;6.692;2023-06-04T11:00:20;101906.84;;;27.18;20.35
9110;BME280;4590;51.462;6.692;2023-06-04T11:02:53;101913.66;;;27.13;19.57
9110;BME280;4590;51.462;6.692;2023-06-04T11:05:19;101910.56;;;26.85;19.38
9110;BME280;4590;51.462;6.692;2023-06-04T11:07:45;101915.69;;;26.72;19.24
9110;BME280;4590;51.462;6.692;2023-06-04T11:10:11;101906.38;;;26.68;19.88
9110;BME280;4590;51.462;6.692;2023-06-04T11:12:47;101915.63;;;26.65;20.18
9110;BME280;4590;51.462;6.692;2023-06-04T11:15:13;101904.28;;;26.58;20.15
9110;BME280;4590;51.462;6.692;2023-06-04T11:17:48;101916.22;;;26.44;19.64
9110;BME280;4590;51.462;6.692;2023-06-04T11:20:17;101906.44;;;26.35;19.37
9110;BME280;4590;51.462;6.692;2023-06-04T11:22:49;101900.16;;;26.18;19.56
9110;BME280;4590;51.462;6.692;2023-06-04T11:25:15;101914.59;;;26.13;20.04
9110;BME280;4590;51.462;6.692;2023-06-04T11:27:41;101896.41;;;26.07;19.72
9110;BME280;4590;51.462;6.692;2023-06-04T11:30:06;101898.25;;;25.93;20.02
9110;BME280;4590;51.462;6.692;2023-06-04T11:32:32;101893.75;;;25.88;20.63
9110;BME280;4590;51.462;6.692;2023-06-04T11:35:03;101894.06;;;25.83;20.63
9110;BME280;4590;51.462;6.692;2023-06-04T11:37:30;101885.59;;;25.53;20.07
9110;BME280;4590;51.462;6.692;2023-06-04T11:39:57;101889.59;;;25.78;19.84
9110;BME280;4590;51.462;6.692;2023-06-04T11:42:22;101888.88;;;25.85;20.39
9110;BME280;4590;51.462;6.692;2023-06-04T11:44:47;101901.31;;;25.80;19.81
9110;BME280;4590;51.462;6.692;2023-06-04T11:47:13;101895.91;;;25.68;20.23
9110;BME280;4590;51.462;6.692;2023-06-04T11:49:39;101894.25;;;25.64;20.08
9110;BME280;4590;51.462;6.692;2023-06-04T11:52:05;101889.03;;;25.39;19.83
9110;BME280;4590;51.462;6.692;2023-06-04T11:54:30;101893.34;;;25.60;20.72
9110;BME280;4590;51.462;6.692;2023-06-04T11:57:01;101897.25;;;25.51;20.54
9110;BME280;4590;51.462;6.692;2023-06-04T11:59:30;101891.50;;;25.44;20.38
9110;BME280;4590;51.462;6.692;2023-06-04T12:01:56;101897.78;;;25.34;20.65
9110;BME280;4590;51.462;6.692;2023-06-04T12:04:22;101886.75;;;25.22;20.47
9110;BME280;4590;51.462;6.692;2023-06-04T12:06:53;101883.50;;;25.20;20.30
9110;BME280;4590;51.462;6.692;2023-06-04T12:09:22;101883.78;;;25.11;20.50
9110;BME280;4590;51.462;6.692;2023-06-04T12:11:47;101884.28;;;25.17;20.16
9110;BME280;4590;51.462;6.692;2023-06-04T12:14:16;101872.56;;;25.15;19.83
9110;BME280;4590;51.462;6.692;2023-06-04T12:16:41;101879.69;;;25.09;20.16
9110;BME280;4590;51.462;6.692;2023-06-04T12:19:10;101871.16;;;25.02;20.52
9110;BME280;4590;51.462;6.692;2023-06-04T12:21:36;101885.16;;;24.98;20.05
9110;BME280;4590;51.462;6.692;2023-06-04T12:26:33;101878.94;;;24.89;20.70
9110;BME280;4590;51.462;6.692;2023-06-04T12:29:06;101869.34;;;24.67;20.97
9110;BME280;4590;51.462;6.692;2023-06-04T12:31:31;101871.13;;;24.56;20.79
9110;BME280;4590;51.462;6.692;2023-06-04T12:33:58;101871.25;;;24.63;20.44
9110;BME280;4590;51.462;6.692;2023-06-04T12:36:23;101860.00;;;24.63;19.53
9110;BME280;4590;51.462;6.692;2023-06-04T12:38:48;101864.19;;;24.73;20.73
9110;BME280;4590;51.462;6.692;2023-06-04T12:41:13;101860.56;;;24.72;20.45
9110;BME280;4590;51.462;6.692;2023-06-04T12:43:38;101857.38;;;24.74;20.71
9110;BME280;4590;51.462;6.692;2023-06-04T12:46:04;101865.38;;;24.72;20.65
9110;BME280;4590;51.462;6.692;2023-06-04T12:48:29;101855.63;;;24.66;20.97
9110;BME280;4590;51.462;6.692;2023-06-04T12:50:54;101856.19;;;24.75;21.33
9110;BME280;4590;51.462;6.692;2023-06-04T12:53:19;101855.88;;;24.80;21.43
9110;BME280;4590;51.462;6.692;2023-06-04T12:55:45;101853.50;;;24.82;21.13
9110;BME280;4590;51.462;6.692;2023-06-04T12:58:10;101864.75;;;24.82;21.15
9110;BME280;4590;51.462;6.692;2023-06-04T13:00:35;101863.06;;;24.77;19.91
9110;BME280;4590;51.462;6.692;2023-06-04T13:03:00;101861.31;;;24.69;20.02
9110;BME280;4590;51.462;6.692;2023-06-04T13:05:25;101859.50;;;24.80;20.44
9110;BME280;4590;51.462;6.692;2023-06-04T13:07:51;101858.25;;;24.78;20.51
9110;BME280;4590;51.462;6.692;2023-06-04T13:10:16;101867.00;;;24.73;20.55
9110;BME280;4590;51.462;6.692;2023-06-04T13:12:41;101868.19;;;24.72;20.87
9110;BME280;4590;51.462;6.692;2023-06-04T13:15:07;101854.88;;;24.69;20.77
9110;BME280;4590;51.462;6.692;2023-06-04T13:17:32;101843.66;;;24.72;20.31
9110;BME280;4590;51.462;6.692;2023-06-04T13:19:59;101848.91;;;24.74;20.94
9110;BME280;4590;51.462;6.692;2023-06-04T13:22:25;101855.13;;;24.60;20.59